createdAt,value
2018-04-06T00:00:05.694Z,4.02
2018-04-06T00:01:15.401Z,4
2018-04-06T00:02:25.109Z,3.99
2018-04-06T00:03:34.565Z,4
2018-04-06T00:04:43.829Z,4.02
2018-04-06T00:05:53.793Z,3.95
2018-04-06T00:07:03.498Z,3.99
2018-04-06T00:08:13.459Z,3.96
2018-04-06T00:09:22.896Z,3.96
2018-04-06T00:10:32.358Z,3.91
2018-04-06T00:11:42.068Z,3.96
2018-04-06T00:12:51.773Z,3.94
2018-04-06T00:14:01.207Z,3.89
2018-04-06T00:15:10.651Z,3.84
2018-04-06T00:16:20.345Z,3.86
2018-04-06T00:17:30.037Z,3.84
2018-04-06T00:18:39.993Z,3.91
2018-04-06T00:19:49.178Z,3.84
2018-04-06T00:20:59.131Z,3.86
2018-04-06T00:22:08.861Z,3.85
2018-04-06T00:23:18.816Z,3.89
2018-04-06T00:24:28.792Z,3.92
2018-04-06T00:25:38.753Z,3.88
2018-04-06T00:26:48.719Z,3.89
2018-04-06T00:27:58.684Z,3.81
2018-04-06T00:29:08.397Z,3.76
2018-04-06T00:30:18.406Z,3.78
2018-04-06T00:31:28.362Z,3.82
2018-04-06T00:32:38.320Z,3.84
2018-04-06T00:33:48.019Z,3.85
2018-04-06T00:34:57.980Z,3.81
2018-04-06T00:36:07.421Z,3.74
2018-04-06T00:37:17.124Z,3.73
2018-04-06T00:38:26.717Z,3.71
2018-04-06T00:39:36.169Z,3.66
2018-04-06T00:40:46.120Z,3.66
2018-04-06T00:41:55.590Z,3.64
2018-04-06T00:43:05.332Z,3.71
2018-04-06T00:44:15.299Z,3.68
2018-04-06T00:45:25.280Z,3.68
2018-04-06T00:46:35.231Z,3.66
2018-04-06T00:47:45.184Z,3.67
2018-04-06T00:48:55.144Z,3.64
2018-04-06T00:50:05.108Z,3.67
2018-04-06T00:51:14.537Z,3.59
2018-04-06T00:52:24.864Z,3.55
2018-04-06T00:53:34.830Z,3.59
2018-04-06T00:54:44.791Z,3.55
2018-04-06T00:55:54.744Z,3.58
2018-04-06T00:57:04.701Z,3.64
2018-04-06T00:58:14.656Z,3.63
2018-04-06T00:59:24.605Z,3.58
2018-04-06T01:00:34.311Z,3.58
2018-04-06T01:01:44.018Z,3.64
2018-04-06T01:02:53.978Z,3.56
2018-04-06T01:04:03.950Z,3.59
2018-04-06T01:05:13.139Z,3.5
2018-04-06T01:06:23.104Z,3.56
2018-04-06T01:07:33.061Z,3.49
2018-04-06T01:08:42.791Z,3.45
2018-04-06T01:09:52.744Z,3.49
2018-04-06T01:11:02.439Z,3.53
2018-04-06T01:12:12.396Z,3.49
2018-04-06T01:13:22.360Z,3.49
2018-04-06T01:14:32.063Z,3.43
2018-04-06T01:15:42.023Z,3.52
2018-04-06T01:16:51.722Z,3.45
2018-04-06T01:18:01.676Z,3.48
2018-04-06T01:19:11.638Z,3.45
2018-04-06T01:20:21.601Z,3.3
2018-04-06T01:21:31.564Z,3.45
2018-04-06T01:22:41.513Z,3.3
2018-04-06T01:23:51.524Z,3.33
2018-04-06T01:25:01.229Z,3.31
2018-04-06T01:26:10.922Z,3.29
2018-04-06T01:27:20.612Z,3.34
2018-04-06T01:28:29.813Z,3.22
2018-04-06T01:29:39.811Z,3.3
2018-04-06T01:30:49.778Z,3.3
2018-04-06T01:31:59.749Z,3.33
2018-04-06T01:33:09.710Z,3.29
2018-04-06T01:34:19.655Z,3.24
2018-04-06T01:35:29.355Z,3.29
2018-04-06T01:36:39.330Z,3.27
2018-04-06T01:37:49.292Z,3.13
2018-04-06T01:38:59.241Z,3.22
2018-04-06T01:40:09.208Z,3.19
2018-04-06T01:41:19.167Z,3.24
2018-04-06T01:42:28.861Z,3.11
2018-04-06T01:43:38.818Z,3.13
2018-04-06T01:44:48.764Z,3.09
2018-04-06T01:45:58.217Z,3.11
2018-04-06T01:47:08.197Z,3.08
2018-04-06T01:48:17.909Z,3.15
2018-04-06T01:49:27.612Z,3.08
2018-04-06T01:50:37.570Z,3.13
2018-04-06T01:51:47.007Z,3.09
2018-04-06T01:52:56.505Z,3.11
2018-04-06T01:54:06.560Z,3.16
2018-04-06T01:55:16.510Z,3.11
2018-04-06T01:56:26.482Z,3.06
2018-04-06T01:57:35.919Z,3.09
2018-04-06T01:58:45.876Z,3.05
2018-04-06T01:59:55.630Z,3.05
2018-04-06T02:01:05.497Z,3
2018-04-06T02:02:15.453Z,3.08
2018-04-06T02:03:25.408Z,3.03
2018-04-06T02:04:35.349Z,3.06
2018-04-06T02:05:45.302Z,2.98
2018-04-06T02:06:55.258Z,3.06
2018-04-06T02:08:05.213Z,3.05
2018-04-06T02:09:15.162Z,2.95
2018-04-06T02:10:24.607Z,2.95
2018-04-06T02:11:34.308Z,2.93
2018-04-06T02:12:44.264Z,3.01
2018-04-06T02:13:53.963Z,2.98
2018-04-06T02:15:04.084Z,2.88
2018-04-06T02:16:14.108Z,2.98
2018-04-06T02:17:24.067Z,2.95
2018-04-06T02:18:34.029Z,2.98
2018-04-06T02:19:43.992Z,2.9
2018-04-06T02:20:53.954Z,2.88
2018-04-06T02:22:03.914Z,2.93
2018-04-06T02:23:13.874Z,2.9
2018-04-06T02:24:23.583Z,2.83
2018-04-06T02:25:33.887Z,2.9
2018-04-06T02:26:43.845Z,2.85
2018-04-06T02:27:53.559Z,2.83
2018-04-06T02:29:03.252Z,2.73
2018-04-06T02:30:12.969Z,2.8
2018-04-06T02:31:22.941Z,2.82
2018-04-06T02:32:32.926Z,2.83
2018-04-06T02:33:42.883Z,2.77
2018-04-06T02:34:52.852Z,2.85
2018-04-06T02:36:02.546Z,2.77
2018-04-06T02:37:12.268Z,2.75
2018-04-06T02:38:22.246Z,2.73
2018-04-06T02:39:32.213Z,2.79
2018-04-06T02:40:42.189Z,2.75
2018-04-06T02:41:52.167Z,2.77
2018-04-06T02:43:02.123Z,2.76
2018-04-06T02:44:12.079Z,2.76
2018-04-06T02:45:22.087Z,2.7
2018-04-06T02:46:32.081Z,2.65
2018-04-06T02:47:42.106Z,2.7
2018-04-06T02:48:52.063Z,2.68
2018-04-06T02:50:01.778Z,2.68
2018-04-06T02:51:11.756Z,2.65
2018-04-06T02:52:21.474Z,2.7
2018-04-06T02:53:31.208Z,2.62
2018-04-06T02:54:41.168Z,2.69
2018-04-06T02:55:51.124Z,2.65
2018-04-06T02:57:01.104Z,2.68
2018-04-06T02:58:11.062Z,2.7
2018-04-06T02:59:20.769Z,2.62
2018-04-06T03:00:30.517Z,2.55
2018-04-06T03:01:40.495Z,2.7
2018-04-06T03:02:50.442Z,2.58
2018-04-06T03:04:00.412Z,2.59
2018-04-06T03:05:10.372Z,2.68
2018-04-06T03:06:20.344Z,2.57
2018-04-06T03:07:30.297Z,2.55
2018-04-06T03:08:40.011Z,2.58
2018-04-06T03:09:49.731Z,2.59
2018-04-06T03:10:59.700Z,2.58
2018-04-06T03:12:09.448Z,2.58
2018-04-06T03:13:19.432Z,2.59
2018-04-06T03:14:29.133Z,2.59
2018-04-06T03:15:39.092Z,2.54
2018-04-06T03:16:49.040Z,2.47
2018-04-06T03:17:58.988Z,2.52
2018-04-06T03:19:08.944Z,2.47
2018-04-06T03:20:18.650Z,2.5
2018-04-06T03:21:28.605Z,2.52
2018-04-06T03:22:38.292Z,2.44
2018-04-06T03:23:48.242Z,2.5
2018-04-06T03:24:57.939Z,2.52
2018-04-06T03:26:07.909Z,2.57
2018-04-06T03:27:17.856Z,2.51
2018-04-06T03:28:27.807Z,2.5
2018-04-06T03:29:37.510Z,2.46
2018-04-06T03:30:47.213Z,2.4
2018-04-06T03:31:56.913Z,2.46
2018-04-06T03:33:06.866Z,2.46
2018-04-06T03:34:16.572Z,2.4
2018-04-06T03:35:26.527Z,2.41
2018-04-06T03:36:36.219Z,2.44
2018-04-06T03:37:46.193Z,2.4
2018-04-06T03:38:56.159Z,2.36
2018-04-06T03:40:05.860Z,2.39
2018-04-06T03:41:15.816Z,2.39
2018-04-06T03:42:25.773Z,2.41
2018-04-06T03:43:35.212Z,2.37
2018-04-06T03:44:44.911Z,2.37
2018-04-06T03:45:54.892Z,2.39
2018-04-06T03:47:04.073Z,2.41
2018-04-06T03:48:14.031Z,2.4
2018-04-06T03:49:23.730Z,2.37
2018-04-06T03:50:33.160Z,2.36
2018-04-06T03:51:43.140Z,2.4
2018-04-06T03:52:53.109Z,2.5
2018-04-06T03:54:03.078Z,2.39
2018-04-06T03:55:12.519Z,2.4
2018-04-06T03:56:22.221Z,2.37
2018-04-06T03:57:31.915Z,2.36
2018-04-06T03:58:41.637Z,2.37
2018-04-06T03:59:51.337Z,2.37
2018-04-06T04:01:00.515Z,2.37
2018-04-06T04:02:10.211Z,2.37
2018-04-06T04:03:20.180Z,2.32
2018-04-06T04:04:29.632Z,2.28
2018-04-06T04:05:39.069Z,2.3
2018-04-06T04:06:49.033Z,2.3
2018-04-06T04:07:58.994Z,2.32
2018-04-06T04:09:08.695Z,2.25
2018-04-06T04:10:18.396Z,2.33
2018-04-06T04:11:28.371Z,2.37
2018-04-06T04:12:37.809Z,2.43
2018-04-06T04:13:47.510Z,2.36
2018-04-06T04:14:57.225Z,2.39
2018-04-06T04:16:06.922Z,2.36
2018-04-06T04:17:16.360Z,2.43
2018-04-06T04:18:26.482Z,2.4
2018-04-06T04:19:36.140Z,2.39
2018-04-06T04:20:45.839Z,2.36
2018-04-06T04:21:55.816Z,2.36
2018-04-06T04:23:05.777Z,2.34
2018-04-06T04:24:15.745Z,2.4
2018-04-06T04:25:25.721Z,2.41
2018-04-06T04:26:35.672Z,2.43
2018-04-06T04:27:45.386Z,2.36
2018-04-06T04:28:55.083Z,2.41
2018-04-06T04:30:04.779Z,2.37
2018-04-06T04:31:14.739Z,2.41
2018-04-06T04:32:24.732Z,2.36
2018-04-06T04:33:34.695Z,2.43
2018-04-06T04:34:44.650Z,2.46
2018-04-06T04:35:54.609Z,2.4
2018-04-06T04:37:04.310Z,2.36
2018-04-06T04:38:14.270Z,2.39
2018-04-06T04:39:23.973Z,2.5
2018-04-06T04:40:33.937Z,2.43
2018-04-06T04:41:43.648Z,2.34
2018-04-06T04:42:53.359Z,2.36
2018-04-06T04:44:03.056Z,2.4
2018-04-06T04:45:13.020Z,2.37
2018-04-06T04:46:22.731Z,2.36
2018-04-06T04:47:32.428Z,2.46
2018-04-06T04:48:41.876Z,2.4
2018-04-06T04:49:51.571Z,2.37
2018-04-06T04:51:01.011Z,2.28
2018-04-06T04:52:10.442Z,2.37
2018-04-06T04:53:19.673Z,2.36
2018-04-06T04:54:29.183Z,2.44
2018-04-06T04:55:38.367Z,2.33
2018-04-06T04:56:48.061Z,2.25
2018-04-06T04:57:58.033Z,2.33
2018-04-06T04:59:08.018Z,2.33
2018-04-06T05:00:17.995Z,2.28
2018-04-06T05:01:27.974Z,2.4
2018-04-06T05:02:37.986Z,2.33
2018-04-06T05:03:47.684Z,2.37
2018-04-06T05:04:57.448Z,2.4
2018-04-06T05:06:07.435Z,2.37
2018-04-06T05:07:17.135Z,2.37
2018-04-06T05:08:27.104Z,2.39
2018-04-06T05:09:37.067Z,2.37
2018-04-06T05:10:46.766Z,2.36
2018-04-06T05:11:56.477Z,2.39
2018-04-06T05:13:06.432Z,2.37
2018-04-06T05:14:15.878Z,2.36
2018-04-06T05:15:25.836Z,2.37
2018-04-06T05:16:35.284Z,2.37
2018-04-06T05:17:45.044Z,2.39
2018-04-06T05:18:54.993Z,2.43
2018-04-06T05:20:04.960Z,2.37
2018-04-06T05:21:14.652Z,2.39
2018-04-06T05:22:24.344Z,2.37
2018-04-06T05:23:34.297Z,2.4
2018-04-06T05:24:44.337Z,2.43
2018-04-06T05:25:54.311Z,2.5
2018-04-06T05:27:04.015Z,2.4
2018-04-06T05:28:13.455Z,2.5
2018-04-06T05:29:23.164Z,2.36
2018-04-06T05:30:32.608Z,2.47
2018-04-06T05:31:42.579Z,2.46
2018-04-06T05:32:52.010Z,2.44
2018-04-06T05:34:01.701Z,2.5
2018-04-06T05:35:11.149Z,2.52
2018-04-06T05:36:21.119Z,2.43
2018-04-06T05:37:31.225Z,2.57
2018-04-06T05:38:41.085Z,2.58
2018-04-06T05:39:51.304Z,2.58
2018-04-06T05:41:01.474Z,2.73
2018-04-06T05:42:11.435Z,2.68
2018-04-06T05:43:21.401Z,2.73
2018-04-06T05:44:31.354Z,2.73
2018-04-06T05:45:41.311Z,2.68
2018-04-06T05:46:51.274Z,2.7
2018-04-06T05:48:01.246Z,2.73
2018-04-06T05:49:11.210Z,2.73
2018-04-06T05:50:21.207Z,2.76
2018-04-06T05:51:31.162Z,2.73
2018-04-06T05:52:40.858Z,2.75
2018-04-06T05:53:50.814Z,2.72
2018-04-06T05:55:00.793Z,2.9
2018-04-06T05:56:10.757Z,2.88
2018-04-06T05:57:20.461Z,2.91
2018-04-06T05:58:29.901Z,2.9
2018-04-06T05:59:39.873Z,2.9
2018-04-06T06:00:49.838Z,2.95
2018-04-06T06:01:59.273Z,2.95
2018-04-06T06:03:08.979Z,2.95
2018-04-06T06:04:18.421Z,2.97
2018-04-06T06:05:28.381Z,3.03
2018-04-06T06:06:38.081Z,3.05
2018-04-06T06:07:47.787Z,3
2018-04-06T06:08:57.747Z,3.03
2018-04-06T06:10:07.703Z,3.12
2018-04-06T06:11:17.411Z,3.09
2018-04-06T06:12:27.134Z,3.11
2018-04-06T06:13:36.337Z,3.08
2018-04-06T06:14:46.305Z,3.11
2018-04-06T06:15:55.737Z,3.19
2018-04-06T06:17:05.188Z,3.22
2018-04-06T06:18:15.144Z,3.18
2018-04-06T06:19:24.594Z,3.18
2018-04-06T06:20:33.520Z,3.3
2018-04-06T06:21:43.515Z,3.3
2018-04-06T06:22:53.494Z,3.22
2018-04-06T06:24:02.929Z,3.33
2018-04-06T06:25:12.379Z,3.4
2018-04-06T06:26:22.076Z,3.34
2018-04-06T06:27:31.766Z,3.45
2018-04-06T06:28:41.243Z,3.41
2018-04-06T06:29:51.217Z,3.53
2018-04-06T06:31:01.179Z,3.4
2018-04-06T06:32:10.621Z,3.37
2018-04-06T06:33:20.359Z,3.36
2018-04-06T06:34:30.077Z,3.4
2018-04-06T06:35:40.058Z,3.41
2018-04-06T06:36:50.078Z,3.49
2018-04-06T06:38:00.144Z,3.58
2018-04-06T06:39:10.109Z,3.5
2018-04-06T06:40:19.810Z,3.55
2018-04-06T06:41:29.520Z,3.71
2018-04-06T06:42:38.972Z,3.68
2018-04-06T06:43:48.409Z,3.7
2018-04-06T06:44:57.865Z,3.82
2018-04-06T06:46:07.836Z,3.82
2018-04-06T06:47:17.286Z,3.78
2018-04-06T06:48:27.258Z,3.82
2018-04-06T06:49:37.222Z,3.78
2018-04-06T06:50:47.179Z,3.96
2018-04-06T06:51:57.138Z,3.92
2018-04-06T06:53:06.329Z,4
2018-04-06T06:54:16.034Z,3.96
2018-04-06T06:55:26.114Z,4.06
2018-04-06T06:56:35.820Z,3.99
2018-04-06T06:57:45.788Z,4.04
2018-04-06T06:58:55.225Z,4.1
2018-04-06T07:00:05.194Z,4.1
2018-04-06T07:01:14.899Z,4.16
2018-04-06T07:02:24.876Z,4.22
2018-04-06T07:03:34.842Z,4.21
2018-04-06T07:04:44.282Z,4.24
2018-04-06T07:05:53.989Z,4.27
2018-04-06T07:07:03.955Z,4.25
2018-04-06T07:08:13.919Z,4.36
2018-04-06T07:09:23.639Z,4.32
2018-04-06T07:10:33.605Z,4.31
2018-04-06T07:11:43.559Z,4.42
2018-04-06T07:12:53.522Z,4.53
2018-04-06T07:14:02.716Z,4.49
2018-04-06T07:15:12.822Z,4.5
2018-04-06T07:16:22.536Z,4.57
2018-04-06T07:17:32.249Z,4.64
2018-04-06T07:18:41.955Z,4.53
2018-04-06T07:19:51.920Z,4.64
2018-04-06T07:21:01.869Z,4.58
2018-04-06T07:22:11.597Z,4.71
2018-04-06T07:23:21.042Z,4.61
2018-04-06T07:24:30.757Z,4.64
2018-04-06T07:25:40.724Z,4.7
2018-04-06T07:26:50.688Z,4.84
2018-04-06T07:28:00.678Z,4.84
2018-04-06T07:29:10.662Z,4.82
2018-04-06T07:30:20.631Z,4.84
2018-04-06T07:31:30.592Z,4.84
2018-04-06T07:32:40.293Z,4.95
2018-04-06T07:33:50.254Z,5.01
2018-04-06T07:35:00.217Z,5.07
2018-04-06T07:36:10.179Z,5
2018-04-06T07:37:19.894Z,4.97
2018-04-06T07:38:29.619Z,4.98
2018-04-06T07:39:39.597Z,5.02
2018-04-06T07:40:49.315Z,5.04
2018-04-06T07:41:59.034Z,5.13
2018-04-06T07:43:08.491Z,5.08
2018-04-06T07:44:18.728Z,5.23
2018-04-06T07:45:28.253Z,5.28
2018-04-06T07:46:37.705Z,5.37
2018-04-06T07:47:47.410Z,5.4
2018-04-06T07:48:57.109Z,5.29
2018-04-06T07:50:06.809Z,5.34
2018-04-06T07:51:16.779Z,5.36
2018-04-06T07:52:26.752Z,5.4
2018-04-06T07:53:36.463Z,5.47
2018-04-06T07:54:45.925Z,5.43
2018-04-06T07:55:55.882Z,5.58
2018-04-06T07:57:05.383Z,5.52
2018-04-06T07:58:15.096Z,5.64
2018-04-06T07:59:24.799Z,5.69
2018-04-06T08:00:34.780Z,5.64
2018-04-06T08:01:44.768Z,5.67
2018-04-06T08:02:54.472Z,5.73
2018-04-06T08:04:04.437Z,5.72
2018-04-06T08:05:14.147Z,5.72
2018-04-06T08:06:24.126Z,5.84
2018-04-06T08:07:34.089Z,5.9
2018-04-06T08:08:44.064Z,5.95
2018-04-06T08:09:53.262Z,6.1
2018-04-06T08:11:02.974Z,6.06
2018-04-06T08:12:12.673Z,6.16
2018-04-06T08:13:22.434Z,6.16
2018-04-06T08:14:32.246Z,6.22
2018-04-06T08:15:41.970Z,6.26
2018-04-06T08:16:51.669Z,6.2
2018-04-06T08:18:01.654Z,6.29
2018-04-06T08:19:11.364Z,6.34
2018-04-06T08:20:21.080Z,6.35
2018-04-06T08:21:30.510Z,6.36
2018-04-06T08:22:39.952Z,6.43
2018-04-06T08:23:49.655Z,6.47
2018-04-06T08:24:59.385Z,6.72
2018-04-06T08:26:09.367Z,6.9
2018-04-06T08:27:19.376Z,6.96
2018-04-06T08:28:29.073Z,7.19
2018-04-06T08:29:39.059Z,7.31
2018-04-06T08:30:48.757Z,7.62
2018-04-06T08:31:58.217Z,7.85
2018-04-06T08:33:07.932Z,8.17
2018-04-06T08:34:17.651Z,8.42
2018-04-06T08:35:27.643Z,8.46
2018-04-06T08:36:37.409Z,8.66
2018-04-06T08:37:47.110Z,8.45
2018-04-06T08:38:56.818Z,8.38
2018-04-06T08:40:06.801Z,8.41
2018-04-06T08:41:16.505Z,8.46
2018-04-06T08:42:26.054Z,8.52
2018-04-06T08:43:36.046Z,8.44
2018-04-06T08:44:46.019Z,8.45
2018-04-06T08:45:55.735Z,8.44
2018-04-06T08:47:05.195Z,8.42
2018-04-06T08:48:15.032Z,8.45
2018-04-06T08:49:25.063Z,8.63
2018-04-06T08:50:34.778Z,8.66
2018-04-06T08:51:44.750Z,8.75
2018-04-06T08:52:54.465Z,8.72
2018-04-06T08:54:04.175Z,8.75
2018-04-06T08:55:13.884Z,8.97
2018-04-06T08:56:23.948Z,9.11
2018-04-06T08:57:33.667Z,9.15
2018-04-06T08:58:43.655Z,9.18
2018-04-06T08:59:53.370Z,9.05
2018-04-06T09:01:03.368Z,9.26
2018-04-06T09:02:13.393Z,9.31
2018-04-06T09:03:23.371Z,9.29
2018-04-06T09:04:33.084Z,9.26
2018-04-06T09:05:43.124Z,9.47
2018-04-06T09:06:53.091Z,9.56
2018-04-06T09:08:03.073Z,9.81
2018-04-06T09:09:13.060Z,9.92
2018-04-06T09:10:22.790Z,10.05
2018-04-06T09:11:32.520Z,10.27
2018-04-06T09:12:42.739Z,10.34
2018-04-06T09:13:52.538Z,10.51
2018-04-06T09:15:02.551Z,10.55
2018-04-06T09:16:12.564Z,10.38
2018-04-06T09:17:22.288Z,10.09
2018-04-06T09:18:32.004Z,9.99
2018-04-06T09:19:41.996Z,9.99
2018-04-06T09:20:51.705Z,9.99
2018-04-06T09:22:01.193Z,9.84
2018-04-06T09:23:10.906Z,9.8
2018-04-06T09:24:20.871Z,9.82
2018-04-06T09:25:30.854Z,9.99
2018-04-06T09:26:40.834Z,10.12
2018-04-06T09:27:50.552Z,10.27
2018-04-06T09:29:00.539Z,10.53
2018-04-06T09:30:10.008Z,10.71
2018-04-06T09:31:19.729Z,11.02
2018-04-06T09:32:29.739Z,11.18
2018-04-06T09:33:39.488Z,11.19
2018-04-06T09:34:49.202Z,11.4
2018-04-06T09:35:58.658Z,11.81
2018-04-06T09:37:08.638Z,12.15
2018-04-06T09:38:18.614Z,12.14
2018-04-06T09:39:28.598Z,11.62
2018-04-06T09:40:38.590Z,11.45
2018-04-06T09:41:48.072Z,11.56
2018-04-06T09:42:58.032Z,11.63
2018-04-06T09:44:08.012Z,11.55
2018-04-06T09:45:17.975Z,11.86
2018-04-06T09:46:27.429Z,12.14
2018-04-06T09:47:37.140Z,11.93
2018-04-06T09:48:46.090Z,11.89
2018-04-06T09:49:55.801Z,11.51
2018-04-06T09:51:05.773Z,11.41
2018-04-06T09:52:15.486Z,11.12
2018-04-06T09:53:25.216Z,11.13
2018-04-06T09:54:35.186Z,11.2
2018-04-06T09:55:44.913Z,11.45
2018-04-06T09:56:54.378Z,11.81
2018-04-06T09:58:03.836Z,12.03
2018-04-06T09:59:13.306Z,12.07
2018-04-06T10:00:23.300Z,12
2018-04-06T10:01:33.277Z,12.05
2018-04-06T10:02:42.992Z,12.4
2018-04-06T10:03:52.720Z,12.65
2018-04-06T10:05:02.445Z,12.39
2018-04-06T10:06:12.197Z,12.54
2018-04-06T10:07:21.652Z,12.39
2018-04-06T10:08:31.639Z,12.65
2018-04-06T10:09:41.615Z,12.47
2018-04-06T10:10:51.703Z,12.37
2018-04-06T10:12:01.824Z,12.14
2018-04-06T10:13:11.871Z,12.1
2018-04-06T10:14:21.866Z,12.08
2018-04-06T10:15:31.852Z,12.11
2018-04-06T10:16:41.836Z,12.25
2018-04-06T10:17:51.571Z,12.43
2018-04-06T10:19:01.559Z,12.66
2018-04-06T10:20:11.299Z,12.18
2018-04-06T10:21:21.275Z,12.03
2018-04-06T10:22:38.744Z,12.18
2018-04-06T10:23:48.728Z,12.25
2018-04-06T10:24:58.467Z,12.44
2018-04-06T10:26:08.452Z,12.65
2018-04-06T10:27:18.481Z,12.93
2018-04-06T10:28:28.522Z,12.72
2018-04-06T10:29:38.505Z,12.53
2018-04-06T10:30:48.494Z,12.73
2018-04-06T10:31:58.220Z,12.66
2018-04-06T10:33:08.209Z,12.98
2018-04-06T10:34:18.185Z,13.03
2018-04-06T10:35:28.162Z,12.99
2018-04-06T10:36:38.143Z,13.37
2018-04-06T10:37:47.852Z,12.93
2018-04-06T10:38:57.819Z,12.81
2018-04-06T10:40:07.271Z,12.73
2018-04-06T10:41:17.013Z,12.54
2018-04-06T10:42:26.992Z,12.88
2018-04-06T10:43:36.981Z,13.13
2018-04-06T10:44:46.446Z,13.13
2018-04-06T10:45:56.423Z,13.13
2018-04-06T10:47:06.396Z,12.78
2018-04-06T10:48:16.368Z,12.63
2018-04-06T10:49:25.824Z,12.73
2018-04-06T10:50:35.553Z,12.8
2018-04-06T10:51:45.556Z,12.78
2018-04-06T10:52:55.272Z,12.94
2018-04-06T10:54:04.998Z,12.91
2018-04-06T10:55:14.976Z,13.03
2018-04-06T10:56:24.700Z,13.05
2018-04-06T10:57:34.158Z,13.28
2018-04-06T10:58:44.229Z,12.93
2018-04-06T10:59:53.963Z,12.94
2018-04-06T11:01:03.686Z,12.83
2018-04-06T11:02:13.398Z,13.12
2018-04-06T11:03:23.396Z,13.4
2018-04-06T11:04:33.125Z,13.57
2018-04-06T11:05:42.596Z,13.82
2018-04-06T11:06:52.575Z,14.05
2018-04-06T11:08:02.291Z,14.2
2018-04-06T11:09:11.752Z,14.28
2018-04-06T11:10:21.204Z,14.26
2018-04-06T11:11:30.662Z,14.45
2018-04-06T11:12:40.425Z,14.48
2018-04-06T11:13:50.146Z,14.44
2018-04-06T11:15:00.126Z,14.28
2018-04-06T11:16:09.847Z,14.28
2018-04-06T11:17:19.737Z,13.91
2018-04-06T11:18:29.727Z,13.75
2018-04-06T11:19:39.441Z,13.68
2018-04-06T11:20:49.176Z,13.76
2018-04-06T11:21:58.887Z,13.64
2018-04-06T11:23:08.997Z,13.54
2018-04-06T11:24:18.730Z,13.75
2018-04-06T11:25:28.715Z,14.23
2018-04-06T11:26:38.443Z,14.89
2018-04-06T11:27:48.430Z,15.07
2018-04-06T11:28:57.888Z,15
2018-04-06T11:30:07.620Z,15.44
2018-04-06T11:31:17.388Z,15.41
2018-04-06T11:32:27.374Z,15.12
2018-04-06T11:33:37.470Z,14.89
2018-04-06T11:34:47.209Z,14.31
2018-04-06T11:35:57.188Z,14.28
2018-04-06T11:37:06.384Z,14.43
2018-04-06T11:38:16.125Z,14.67
2018-04-06T11:39:25.323Z,14.87
2018-04-06T11:40:35.299Z,14.71
2018-04-06T11:41:45.286Z,14.9
2018-04-06T11:42:54.758Z,15.12
2018-04-06T11:44:04.215Z,15.22
2018-04-06T11:45:14.298Z,15.55
2018-04-06T11:46:23.761Z,15.57
2018-04-06T11:47:33.216Z,15.41
2018-04-06T11:48:43.196Z,15.73
2018-04-06T11:49:53.163Z,15.43
2018-04-06T11:51:02.895Z,15.22
2018-04-06T11:52:12.338Z,14.97
2018-04-06T11:53:21.790Z,14.81
2018-04-06T11:54:30.982Z,15.04
2018-04-06T11:55:40.444Z,15.39
2018-04-06T11:56:49.890Z,15.55
2018-04-06T11:57:59.875Z,15.98
2018-04-06T11:59:09.848Z,16
2018-04-06T12:00:19.836Z,16
2018-04-06T12:01:29.047Z,16.26
2018-04-06T12:02:38.506Z,15.99
2018-04-06T12:03:48.226Z,15.51
2018-04-06T12:04:58.188Z,15.54
2018-04-06T12:06:08.175Z,15.36
2018-04-06T12:07:17.641Z,15.19
2018-04-06T12:08:27.106Z,15.39
2018-04-06T12:09:37.092Z,15.12
2018-04-06T12:10:47.081Z,15.23
2018-04-06T12:11:56.807Z,15.33
2018-04-06T12:13:06.941Z,15.76
2018-04-06T12:14:16.932Z,16.21
2018-04-06T12:15:26.670Z,16.16
2018-04-06T12:16:36.403Z,16.03
2018-04-06T12:17:46.139Z,15.66
2018-04-06T12:18:55.887Z,15.9
2018-04-06T12:20:05.625Z,16.36
2018-04-06T12:21:15.104Z,16.74
2018-04-06T12:22:24.838Z,17.09
2018-04-06T12:23:35.063Z,17.5
2018-04-06T12:24:44.778Z,17.84
2018-04-06T12:25:54.510Z,17.63
2018-04-06T12:27:04.229Z,17.19
2018-04-06T12:28:14.140Z,17.34
2018-04-06T12:29:24.115Z,17.23
2018-04-06T12:30:34.097Z,17.17
2018-04-06T12:31:43.819Z,17.1
2018-04-06T12:32:53.806Z,16.69
2018-04-06T12:34:03.277Z,16.65
2018-04-06T12:35:12.468Z,16.46
2018-04-06T12:36:21.665Z,16.8
2018-04-06T12:37:31.158Z,16.73
2018-04-06T12:38:41.224Z,16.66
2018-04-06T12:39:51.194Z,16.44
2018-04-06T12:41:00.924Z,16.73
2018-04-06T12:42:10.900Z,17.28
2018-04-06T12:43:20.656Z,17.56
2018-04-06T12:44:30.135Z,17.41
2018-04-06T12:45:39.849Z,17.37
2018-04-06T12:46:49.305Z,16.92
2018-04-06T12:47:58.538Z,16.73
2018-04-06T12:49:08.516Z,16.86
2018-04-06T12:50:18.503Z,17.27
2018-04-06T12:51:28.478Z,17.69
2018-04-06T12:52:38.196Z,17.9
2018-04-06T12:53:47.651Z,17.93
2018-04-06T12:54:57.120Z,17.82
2018-04-06T12:56:06.848Z,17.98
2018-04-06T12:57:16.829Z,18.15
2018-04-06T12:58:26.287Z,18.06
2018-04-06T12:59:36.262Z,17.97
2018-04-06T13:00:45.973Z,17.14
2018-04-06T13:01:55.948Z,16.65
2018-04-06T13:03:05.765Z,16.4
2018-04-06T13:04:15.491Z,16.34
2018-04-06T13:05:25.208Z,16.34
2018-04-06T13:06:35.175Z,16.58
2018-04-06T13:07:44.911Z,17.32
2018-04-06T13:08:54.888Z,17.68
2018-04-06T13:10:04.438Z,18.23
2018-04-06T13:11:14.419Z,18.71
2018-04-06T13:12:24.400Z,19.08
2018-04-06T13:13:34.116Z,19.38
2018-04-06T13:14:43.576Z,19.79
2018-04-06T13:15:53.305Z,19.97
2018-04-06T13:17:03.293Z,20.14
2018-04-06T13:18:13.294Z,19.84
2018-04-06T13:19:23.277Z,19.59
2018-04-06T13:20:33.000Z,19.57
2018-04-06T13:21:42.966Z,19.67
2018-04-06T13:22:52.939Z,19.96
2018-04-06T13:24:01.870Z,19.77
2018-04-06T13:25:11.589Z,19.56
2018-04-06T13:26:21.594Z,20.02
2018-04-06T13:27:31.580Z,20.3
2018-04-06T13:28:41.058Z,20.67
2018-04-06T13:29:51.043Z,21.13
2018-04-06T13:31:01.040Z,20.77
2018-04-06T13:32:10.816Z,19.7
2018-04-06T13:33:20.798Z,18.98
2018-04-06T13:34:30.775Z,18.89
2018-04-06T13:35:40.512Z,18.45
2018-04-06T13:36:50.508Z,18.37
2018-04-06T13:38:00.490Z,18.53
2018-04-06T13:39:10.490Z,18.91
2018-04-06T13:40:20.482Z,18.88
2018-04-06T13:41:30.462Z,18.43
2018-04-06T13:42:40.185Z,18.85
2018-04-06T13:43:49.385Z,19.08
2018-04-06T13:44:59.367Z,19.23
2018-04-06T13:46:09.088Z,19.64
2018-04-06T13:47:18.543Z,20.1
2018-04-06T13:48:27.990Z,20.29
2018-04-06T13:49:37.974Z,20.64
2018-04-06T13:50:47.699Z,20.86
2018-04-06T13:51:57.408Z,20.93
2018-04-06T13:53:07.400Z,21.01
2018-04-06T13:54:17.374Z,20.86
2018-04-06T13:55:27.366Z,20.37
2018-04-06T13:56:36.830Z,20.17
2018-04-06T13:57:46.831Z,19.85
2018-04-06T13:58:56.334Z,19.56
2018-04-06T14:00:06.066Z,19.19
2018-04-06T14:01:16.297Z,19.24
2018-04-06T14:02:26.327Z,19.17
2018-04-06T14:03:36.313Z,18.89
2018-04-06T14:04:46.278Z,18.37
2018-04-06T14:05:56.273Z,18.42
2018-04-06T14:07:06.258Z,18.08
2018-04-06T14:08:16.251Z,17.88
2018-04-06T14:09:26.356Z,17.95
2018-04-06T14:10:36.073Z,18.36
2018-04-06T14:11:45.788Z,18.45
2018-04-06T14:12:55.772Z,18.76
2018-04-06T14:14:05.502Z,18.66
2018-04-06T14:15:15.273Z,18.34
2018-04-06T14:16:24.731Z,18.46
2018-04-06T14:17:34.469Z,18.94
2018-04-06T14:18:44.181Z,19.57
2018-04-06T14:19:54.153Z,20.19
2018-04-06T14:21:04.128Z,20.6
2018-04-06T14:22:13.845Z,21.28
2018-04-06T14:23:23.567Z,21.68
2018-04-06T14:24:33.590Z,22.07
2018-04-06T14:25:43.302Z,22.36
2018-04-06T14:26:53.289Z,22.73
2018-04-06T14:28:03.000Z,22.56
2018-04-06T14:29:12.975Z,22.71
2018-04-06T14:30:22.692Z,22.67
2018-04-06T14:31:32.682Z,22.37
2018-04-06T14:32:42.409Z,22.34
2018-04-06T14:33:52.382Z,22.38
2018-04-06T14:35:02.384Z,22.65
2018-04-06T14:36:12.362Z,22.84
2018-04-06T14:37:22.347Z,22.86
2018-04-06T14:38:32.071Z,22.8
2018-04-06T14:39:42.067Z,22.47
2018-04-06T14:40:52.067Z,22.36
2018-04-06T14:42:01.832Z,22.3
2018-04-06T14:43:11.812Z,22.43
2018-04-06T14:44:21.788Z,22.58
2018-04-06T14:45:31.775Z,22.84
2018-04-06T14:46:41.501Z,23.08
2018-04-06T14:47:51.508Z,23.25
2018-04-06T14:49:01.235Z,23.58
2018-04-06T14:50:11.230Z,23.99
2018-04-06T14:51:21.210Z,23.59
2018-04-06T14:52:30.924Z,23.25
2018-04-06T14:53:40.960Z,23.4
2018-04-06T14:54:50.691Z,23.81
2018-04-06T14:56:00.678Z,24.13
2018-04-06T14:57:10.676Z,24.41
2018-04-06T14:58:20.398Z,24.69
2018-04-06T14:59:30.384Z,24.75
2018-04-06T15:00:40.114Z,24.92
2018-04-06T15:01:50.092Z,24.24
2018-04-06T15:03:00.065Z,23.71
2018-04-06T15:04:09.787Z,22.77
2018-04-06T15:05:18.980Z,22.55
2018-04-06T15:06:29.024Z,22.47
2018-04-06T15:07:38.484Z,22.01
2018-04-06T15:08:48.211Z,21.77
2018-04-06T15:09:58.195Z,21.35
2018-04-06T15:11:08.187Z,21.01
2018-04-06T15:12:17.657Z,21.13
2018-04-06T15:13:27.120Z,21.32
2018-04-06T15:14:36.582Z,21.59
2018-04-06T15:15:46.555Z,21.7
2018-04-06T15:16:56.284Z,21.68
2018-04-06T15:18:06.024Z,21.4
2018-04-06T15:19:16.012Z,21.45
2018-04-06T15:20:25.990Z,21.89